sensor_id;sensor_type;location;lat;lon;timestamp;P1;durP1;ratioP1;P2;durP2;ratioP2
553;SDS011;59;48.778;9.156;2023-05-10T00:01:04;1.90;;;1.57;;
553;SDS011;59;48.778;9.156;2023-05-10T00:03:29;1.87;;;1.50;;
553;SDS011;59;48.778;9.156;2023-05-10T00:05:55;2.00;;;1.20;;
553;SDS011;59;48.778;9.156;2023-05-10T00:08:22;1.90;;;1.40;;
553;SDS011;59;48.778;9.156;2023-05-10T00:10:47;1.30;;;1.10;;
553;SDS011;59;48.778;9.156;2023-05-10T00:13:13;1.20;;;1.10;;
553;SDS011;59;48.778;9.156;2023-05-10T00:15:39;1.10;;;0.90;;
553;SDS011;59;48.778;9.156;2023-05-10T00:18:05;1.23;;;1.10;;
553;SDS011;59;48.778;9.156;2023-05-10T00:20:30;1.00;;;0.90;;
553;SDS011;59;48.778;9.156;2023-05-10T00:22:56;2.30;;;0.90;;
553;SDS011;59;48.778;9.156;2023-05-10T00:25:21;1.20;;;0.97;;
553;SDS011;59;48.778;9.156;2023-05-10T00:27:47;1.73;;;0.80;;
553;SDS011;59;48.778;9.156;2023-05-10T00:30:13;0.80;;;0.70;;
553;SDS011;59;48.778;9.156;2023-05-10T00:32:39;1.23;;;0.90;;
553;SDS011;59;48.778;9.156;2023-05-10T00:35:04;0.80;;;0.80;;
553;SDS011;59;48.778;9.156;2023-05-10T00:37:30;1.00;;;0.90;;
553;SDS011;59;48.778;9.156;2023-05-10T00:39:56;1.40;;;0.70;;
553;SDS011;59;48.778;9.156;2023-05-10T00:42:22;0.80;;;0.70;;
553;SDS011;59;48.778;9.156;2023-05-10T00:44:47;1.00;;;0.70;;
553;SDS011;59;48.778;9.156;2023-05-10T00:47:13;1.00;;;0.70;;
553;SDS011;59;48.778;9.156;2023-05-10T00:49:39;0.90;;;0.70;;
553;SDS011;59;48.778;9.156;2023-05-10T00:52:05;0.90;;;0.83;;
553;SDS011;59;48.778;9.156;2023-05-10T00:54:31;1.37;;;0.80;;
553;SDS011;59;48.778;9.156;2023-05-10T00:56:57;3.77;;;0.77;;
553;SDS011;59;48.778;9.156;2023-05-10T00:59:23;1.03;;;0.80;;
553;SDS011;59;48.778;9.156;2023-05-10T01:01:49;0.87;;;0.70;;
553;SDS011;59;48.778;9.156;2023-05-10T01:04:16;0.80;;;0.60;;
553;SDS011;59;48.778;9.156;2023-05-10T01:06:42;1.37;;;0.70;;
553;SDS011;59;48.778;9.156;2023-05-10T01:09:08;0.80;;;0.67;;
553;SDS011;59;48.778;9.156;2023-05-10T01:11:34;0.80;;;0.70;;
553;SDS011;59;48.778;9.156;2023-05-10T01:14:00;0.90;;;0.67;;
553;SDS011;59;48.778;9.156;2023-05-10T01:16:27;1.73;;;0.60;;
553;SDS011;59;48.778;9.156;2023-05-10T01:18:56;1.40;;;0.70;;
553;SDS011;59;48.778;9.156;2023-05-10T01:29:59;0.97;;;0.60;;
553;SDS011;59;48.778;9.156;2023-05-10T01:32:34;1.07;;;0.80;;
553;SDS011;59;48.778;9.156;2023-05-10T01:38:04;0.80;;;0.70;;
553;SDS011;59;48.778;9.156;2023-05-10T01:40:39;0.90;;;0.70;;
553;SDS011;59;48.778;9.156;2023-05-10T01:43:19;0.70;;;0.63;;
553;SDS011;59;48.778;9.156;2023-05-10T01:45:57;0.70;;;0.60;;
553;SDS011;59;48.778;9.156;2023-05-10T01:48:35;1.73;;;0.70;;
553;SDS011;59;48.778;9.156;2023-05-10T01:51:03;0.80;;;0.70;;
553;SDS011;59;48.778;9.156;2023-05-10T01:53:30;1.00;;;0.70;;
553;SDS011;59;48.778;9.156;2023-05-10T01:55:56;0.80;;;0.70;;
553;SDS011;59;48.778;9.156;2023-05-10T01:58:25;1.73;;;0.60;;
553;SDS011;59;48.778;9.156;2023-05-10T02:00:55;0.80;;;0.70;;
553;SDS011;59;48.778;9.156;2023-05-10T02:03:22;0.90;;;0.60;;
553;SDS011;59;48.778;9.156;2023-05-10T02:05:49;1.13;;;0.70;;
553;SDS011;59;48.778;9.156;2023-05-10T02:08:16;0.80;;;0.70;;
553;SDS011;59;48.778;9.156;2023-05-10T02:10:42;1.23;;;0.60;;
553;SDS011;59;48.778;9.156;2023-05-10T02:13:10;0.80;;;0.70;;
553;SDS011;59;48.778;9.156;2023-05-10T02:15:36;1.20;;;0.70;;
553;SDS011;59;48.778;9.156;2023-05-10T02:18:02;0.70;;;0.70;;
553;SDS011;59;48.778;9.156;2023-05-10T02:20:30;1.63;;;0.70;;
553;SDS011;59;48.778;9.156;2023-05-10T02:22:57;1.20;;;0.70;;
553;SDS011;59;48.778;9.156;2023-05-10T02:25:23;0.70;;;0.67;;
553;SDS011;59;48.778;9.156;2023-05-10T02:27:49;0.90;;;0.77;;
553;SDS011;59;48.778;9.156;2023-05-10T02:30:17;1.40;;;0.80;;
553;SDS011;59;48.778;9.156;2023-05-10T02:32:44;1.00;;;0.70;;
553;SDS011;59;48.778;9.156;2023-05-10T02:35:10;1.90;;;0.70;;
553;SDS011;59;48.778;9.156;2023-05-10T02:37:39;0.80;;;0.67;;
553;SDS011;59;48.778;9.156;2023-05-10T02:40:05;0.90;;;0.90;;
553;SDS011;59;48.778;9.156;2023-05-10T02:42:32;1.63;;;0.80;;
553;SDS011;59;48.778;9.156;2023-05-10T02:45:01;0.70;;;0.70;;
553;SDS011;59;48.778;9.156;2023-05-10T02:47:28;0.93;;;0.80;;
553;SDS011;59;48.778;9.156;2023-05-10T02:49:54;0.90;;;0.70;;
553;SDS011;59;48.778;9.156;2023-05-10T02:52:21;1.10;;;0.90;;
553;SDS011;59;48.778;9.156;2023-05-10T02:54:50;1.00;;;0.80;;
553;SDS011;59;48.778;9.156;2023-05-10T02:57:18;1.27;;;0.87;;
553;SDS011;59;48.778;9.156;2023-05-10T02:59:48;0.80;;;0.80;;
553;SDS011;59;48.778;9.156;2023-05-10T03:02:13;1.03;;;0.70;;
553;SDS011;59;48.778;9.156;2023-05-10T03:04:39;0.80;;;0.77;;
553;SDS011;59;48.778;9.156;2023-05-10T03:07:05;1.30;;;0.80;;
553;SDS011;59;48.778;9.156;2023-05-10T03:09:31;0.80;;;0.70;;
553;SDS011;59;48.778;9.156;2023-05-10T03:12:01;1.10;;;0.90;;
553;SDS011;59;48.778;9.156;2023-05-10T03:17:25;1.53;;;0.90;;
553;SDS011;59;48.778;9.156;2023-05-10T03:20:04;1.40;;;0.77;;
553;SDS011;59;48.778;9.156;2023-05-10T03:22:36;0.90;;;0.70;;
553;SDS011;59;48.778;9.156;2023-05-10T03:25:06;1.13;;;0.90;;
553;SDS011;59;48.778;9.156;2023-05-10T03:27:33;0.90;;;0.80;;
553;SDS011;59;48.778;9.156;2023-05-10T03:30:01;0.97;;;0.80;;
553;SDS011;59;48.778;9.156;2023-05-10T03:32:28;0.80;;;0.80;;
553;SDS011;59;48.778;9.156;2023-05-10T03:34:56;1.00;;;0.87;;
553;SDS011;59;48.778;9.156;2023-05-10T03:37:22;1.20;;;1.00;;
553;SDS011;59;48.778;9.156;2023-05-10T03:39:48;1.00;;;1.00;;
553;SDS011;59;48.778;9.156;2023-05-10T03:42:13;3.17;;;1.00;;
553;SDS011;59;48.778;9.156;2023-05-10T03:44:39;1.27;;;1.20;;
553;SDS011;59;48.778;9.156;2023-05-10T03:47:05;2.10;;;1.00;;
553;SDS011;59;48.778;9.156;2023-05-10T03:49:31;1.20;;;1.10;;
553;SDS011;59;48.778;9.156;2023-05-10T03:51:57;1.00;;;0.90;;
553;SDS011;59;48.778;9.156;2023-05-10T03:54:22;1.00;;;1.00;;
553;SDS011;59;48.778;9.156;2023-05-10T03:56:48;2.03;;;1.47;;
553;SDS011;59;48.778;9.156;2023-05-10T03:59:14;2.70;;;2.10;;
553;SDS011;59;48.778;9.156;2023-05-10T04:01:40;2.00;;;1.87;;
553;SDS011;59;48.778;9.156;2023-05-10T04:04:05;2.60;;;1.20;;
553;SDS011;59;48.778;9.156;2023-05-10T04:06:31;1.90;;;1.80;;
553;SDS011;59;48.778;9.156;2023-05-10T04:08:57;2.13;;;1.50;;
553;SDS011;59;48.778;9.156;2023-05-10T04:11:25;4.30;;;1.93;;
553;SDS011;59;48.778;9.156;2023-05-10T04:13:51;1.90;;;1.70;;
553;SDS011;59;48.778;9.156;2023-05-10T04:16:17;1.80;;;1.70;;
553;SDS011;59;48.778;9.156;2023-05-10T04:18:42;1.83;;;1.67;;
553;SDS011;59;48.778;9.156;2023-05-10T04:21:12;2.80;;;1.73;;
553;SDS011;59;48.778;9.156;2023-05-10T04:23:38;1.60;;;1.50;;
553;SDS011;59;48.778;9.156;2023-05-10T04:26:04;2.70;;;1.57;;
553;SDS011;59;48.778;9.156;2023-05-10T04:28:30;3.07;;;1.63;;
553;SDS011;59;48.778;9.156;2023-05-10T04:31:02;1.50;;;1.50;;
553;SDS011;59;48.778;9.156;2023-05-10T04:33:29;1.43;;;1.33;;
553;SDS011;59;48.778;9.156;2023-05-10T04:35:55;2.03;;;1.40;;
553;SDS011;59;48.778;9.156;2023-05-10T04:38:20;3.13;;;1.20;;
553;SDS011;59;48.778;9.156;2023-05-10T04:40:46;30.80;;;22.07;;
553;SDS011;59;48.778;9.156;2023-05-10T04:43:11;15.33;;;11.13;;
553;SDS011;59;48.778;9.156;2023-05-10T04:45:38;12.90;;;8.10;;
553;SDS011;59;48.778;9.156;2023-05-10T04:48:03;5.17;;;4.17;;
553;SDS011;59;48.778;9.156;2023-05-10T04:50:29;3.70;;;3.23;;
553;SDS011;59;48.778;9.156;2023-05-10T04:52:55;4.53;;;2.47;;
553;SDS011;59;48.778;9.156;2023-05-10T04:55:21;2.70;;;2.20;;
553;SDS011;59;48.778;9.156;2023-05-10T04:57:46;3.70;;;1.73;;
553;SDS011;59;48.778;9.156;2023-05-10T05:00:12;1.47;;;1.40;;
553;SDS011;59;48.778;9.156;2023-05-10T05:02:41;2.53;;;1.40;;
553;SDS011;59;48.778;9.156;2023-05-10T05:05:10;1.70;;;1.50;;
553;SDS011;59;48.778;9.156;2023-05-10T05:07:36;2.23;;;1.40;;
553;SDS011;59;48.778;9.156;2023-05-10T05:10:04;2.00;;;1.60;;
553;SDS011;59;48.778;9.156;2023-05-10T05:12:33;1.67;;;1.30;;
553;SDS011;59;48.778;9.156;2023-05-10T05:14:59;1.50;;;1.50;;
553;SDS011;59;48.778;9.156;2023-05-10T05:17:25;1.97;;;1.80;;
553;SDS011;59;48.778;9.156;2023-05-10T05:19:51;2.10;;;1.63;;
553;SDS011;59;48.778;9.156;2023-05-10T05:22:17;2.53;;;2.17;;
553;SDS011;59;48.778;9.156;2023-05-10T05:24:44;2.37;;;2.07;;
553;SDS011;59;48.778;9.156;2023-05-10T05:27:10;4.07;;;2.10;;
553;SDS011;59;48.778;9.156;2023-05-10T05:29:35;3.03;;;1.80;;
553;SDS011;59;48.778;9.156;2023-05-10T05:32:01;1.60;;;1.50;;
553;SDS011;59;48.778;9.156;2023-05-10T05:34:27;2.57;;;1.63;;
553;SDS011;59;48.778;9.156;2023-05-10T05:36:52;4.57;;;1.50;;
553;SDS011;59;48.778;9.156;2023-05-10T05:39:18;2.20;;;1.40;;
553;SDS011;59;48.778;9.156;2023-05-10T05:41:44;1.73;;;1.40;;
553;SDS011;59;48.778;9.156;2023-05-10T05:44:11;4.10;;;1.73;;
553;SDS011;59;48.778;9.156;2023-05-10T05:46:36;1.57;;;1.50;;
553;SDS011;59;48.778;9.156;2023-05-10T05:49:02;1.43;;;1.37;;
553;SDS011;59;48.778;9.156;2023-05-10T05:51:28;1.90;;;1.63;;
553;SDS011;59;48.778;9.156;2023-05-10T05:53:53;1.50;;;1.40;;
553;SDS011;59;48.778;9.156;2023-05-10T05:56:19;2.00;;;1.60;;
553;SDS011;59;48.778;9.156;2023-05-10T05:58:49;4.60;;;1.53;;
553;SDS011;59;48.778;9.156;2023-05-10T06:01:15;3.00;;;1.50;;
553;SDS011;59;48.778;9.156;2023-05-10T06:03:41;1.70;;;1.50;;
553;SDS011;59;48.778;9.156;2023-05-10T06:06:07;1.70;;;1.50;;
553;SDS011;59;48.778;9.156;2023-05-10T06:08:33;1.70;;;1.30;;
553;SDS011;59;48.778;9.156;2023-05-10T06:10:59;2.87;;;1.70;;
553;SDS011;59;48.778;9.156;2023-05-10T06:13:29;2.10;;;1.70;;
553;SDS011;59;48.778;9.156;2023-05-10T06:15:57;2.90;;;1.60;;
553;SDS011;59;48.778;9.156;2023-05-10T06:18:23;2.93;;;1.87;;
553;SDS011;59;48.778;9.156;2023-05-10T06:20:50;6.73;;;1.70;;
553;SDS011;59;48.778;9.156;2023-05-10T06:23:16;2.97;;;1.53;;
553;SDS011;59;48.778;9.156;2023-05-10T06:25:42;2.80;;;1.80;;
553;SDS011;59;48.778;9.156;2023-05-10T06:28:08;3.00;;;1.70;;
553;SDS011;59;48.778;9.156;2023-05-10T06:30:35;2.50;;;1.60;;
553;SDS011;59;48.778;9.156;2023-05-10T06:33:01;1.73;;;1.43;;
553;SDS011;59;48.778;9.156;2023-05-10T06:35:38;2.60;;;1.50;;
553;SDS011;59;48.778;9.156;2023-05-10T06:38:04;2.10;;;1.47;;
553;SDS011;59;48.778;9.156;2023-05-10T06:40:30;2.50;;;1.63;;
553;SDS011;59;48.778;9.156;2023-05-10T06:42:55;1.80;;;1.60;;
553;SDS011;59;48.778;9.156;2023-05-10T06:45:21;2.10;;;1.80;;
553;SDS011;59;48.778;9.156;2023-05-10T06:47:47;1.83;;;1.60;;
553;SDS011;59;48.778;9.156;2023-05-10T06:50:13;2.20;;;1.47;;
553;SDS011;59;48.778;9.156;2023-05-10T06:52:40;2.30;;;1.40;;
553;SDS011;59;48.778;9.156;2023-05-10T06:55:06;1.90;;;1.73;;
553;SDS011;59;48.778;9.156;2023-05-10T06:57:33;3.10;;;1.60;;
553;SDS011;59;48.778;9.156;2023-05-10T06:59:59;2.73;;;1.90;;
553;SDS011;59;48.778;9.156;2023-05-10T07:02:26;2.53;;;1.80;;
553;SDS011;59;48.778;9.156;2023-05-10T07:04:52;2.73;;;1.83;;
553;SDS011;59;48.778;9.156;2023-05-10T07:07:17;2.70;;;1.80;;
553;SDS011;59;48.778;9.156;2023-05-10T07:09:43;2.70;;;2.00;;
553;SDS011;59;48.778;9.156;2023-05-10T07:12:09;1.80;;;1.40;;
553;SDS011;59;48.778;9.156;2023-05-10T07:14:35;1.43;;;1.40;;
553;SDS011;59;48.778;9.156;2023-05-10T07:17:01;2.90;;;1.73;;
553;SDS011;59;48.778;9.156;2023-05-10T07:19:26;2.20;;;1.90;;
553;SDS011;59;48.778;9.156;2023-05-10T07:21:54;3.37;;;1.80;;
553;SDS011;59;48.778;9.156;2023-05-10T07:24:20;2.27;;;1.80;;
553;SDS011;59;48.778;9.156;2023-05-10T07:26:45;2.60;;;2.20;;
553;SDS011;59;48.778;9.156;2023-05-10T07:29:11;3.00;;;2.00;;
553;SDS011;59;48.778;9.156;2023-05-10T07:31:37;5.10;;;1.70;;
553;SDS011;59;48.778;9.156;2023-05-10T07:34:02;2.27;;;1.80;;
553;SDS011;59;48.778;9.156;2023-05-10T07:36:28;4.60;;;2.00;;
553;SDS011;59;48.778;9.156;2023-05-10T07:38:54;2.37;;;1.63;;
553;SDS011;59;48.778;9.156;2023-05-10T07:41:19;2.40;;;1.90;;
553;SDS011;59;48.778;9.156;2023-05-10T07:43:46;1.50;;;1.47;;
553;SDS011;59;48.778;9.156;2023-05-10T07:46:11;1.70;;;1.60;;
553;SDS011;59;48.778;9.156;2023-05-10T07:48:37;2.60;;;1.50;;
553;SDS011;59;48.778;9.156;2023-05-10T07:51:03;2.13;;;1.60;;
553;SDS011;59;48.778;9.156;2023-05-10T07:53:28;1.40;;;1.40;;
553;SDS011;59;48.778;9.156;2023-05-10T07:55:55;1.53;;;1.40;;
553;SDS011;59;48.778;9.156;2023-05-10T07:58:23;1.97;;;1.47;;
553;SDS011;59;48.778;9.156;2023-05-10T08:00:49;1.60;;;1.30;;
553;SDS011;59;48.778;9.156;2023-05-10T08:03:15;1.60;;;1.20;;
553;SDS011;59;48.778;9.156;2023-05-10T08:05:40;2.20;;;1.10;;
553;SDS011;59;48.778;9.156;2023-05-10T08:08:06;1.30;;;1.20;;
553;SDS011;59;48.778;9.156;2023-05-10T08:10:32;2.40;;;1.40;;
553;SDS011;59;48.778;9.156;2023-05-10T08:12:58;2.00;;;1.60;;
553;SDS011;59;48.778;9.156;2023-05-10T08:15:24;4.33;;;3.70;;
553;SDS011;59;48.778;9.156;2023-05-10T08:17:51;24.47;;;16.37;;
553;SDS011;59;48.778;9.156;2023-05-10T08:20:16;19.63;;;14.07;;
553;SDS011;59;48.778;9.156;2023-05-10T08:22:44;11.80;;;8.57;;
553;SDS011;59;48.778;9.156;2023-05-10T08:25:10;9.50;;;6.10;;
553;SDS011;59;48.778;9.156;2023-05-10T08:27:36;6.37;;;4.50;;
553;SDS011;59;48.778;9.156;2023-05-10T08:30:01;7.77;;;4.10;;
553;SDS011;59;48.778;9.156;2023-05-10T08:32:27;3.27;;;2.30;;
553;SDS011;59;48.778;9.156;2023-05-10T08:34:53;2.97;;;2.20;;
553;SDS011;59;48.778;9.156;2023-05-10T08:37:20;1.80;;;1.57;;
553;SDS011;59;48.778;9.156;2023-05-10T08:39:47;3.80;;;2.00;;
553;SDS011;59;48.778;9.156;2023-05-10T08:42:13;2.03;;;1.53;;
553;SDS011;59;48.778;9.156;2023-05-10T08:44:42;1.73;;;1.50;;
553;SDS011;59;48.778;9.156;2023-05-10T08:47:07;1.80;;;1.60;;
553;SDS011;59;48.778;9.156;2023-05-10T08:49:34;1.40;;;1.23;;
553;SDS011;59;48.778;9.156;2023-05-10T08:52:02;1.40;;;1.33;;
553;SDS011;59;48.778;9.156;2023-05-10T08:54:29;1.77;;;1.27;;
553;SDS011;59;48.778;9.156;2023-05-10T08:56:56;1.07;;;1.00;;
553;SDS011;59;48.778;9.156;2023-05-10T08:59:22;1.23;;;1.10;;
553;SDS011;59;48.778;9.156;2023-05-10T09:01:48;1.10;;;1.10;;
553;SDS011;59;48.778;9.156;2023-05-10T09:04:15;1.40;;;1.10;;
553;SDS011;59;48.778;9.156;2023-05-10T09:06:41;1.10;;;1.00;;
553;SDS011;59;48.778;9.156;2023-05-10T09:09:07;2.40;;;1.10;;
553;SDS011;59;48.778;9.156;2023-05-10T09:11:32;1.43;;;1.00;;
553;SDS011;59;48.778;9.156;2023-05-10T09:13:58;1.83;;;1.10;;
553;SDS011;59;48.778;9.156;2023-05-10T09:16:24;1.53;;;1.20;;
553;SDS011;59;48.778;9.156;2023-05-10T09:18:50;2.00;;;1.10;;
553;SDS011;59;48.778;9.156;2023-05-10T09:21:16;2.70;;;1.70;;
553;SDS011;59;48.778;9.156;2023-05-10T09:23:45;1.20;;;1.10;;
553;SDS011;59;48.778;9.156;2023-05-10T09:26:12;1.30;;;1.03;;
553;SDS011;59;48.778;9.156;2023-05-10T09:28:57;15.40;;;10.23;;
553;SDS011;59;48.778;9.156;2023-05-10T09:31:24;15.63;;;10.60;;
553;SDS011;59;48.778;9.156;2023-05-10T09:33:50;6.83;;;4.77;;
553;SDS011;59;48.778;9.156;2023-05-10T09:36:16;4.23;;;2.53;;
553;SDS011;59;48.778;9.156;2023-05-10T09:38:49;2.50;;;1.27;;
553;SDS011;59;48.778;9.156;2023-05-10T09:41:19;1.00;;;0.90;;
553;SDS011;59;48.778;9.156;2023-05-10T09:43:48;1.67;;;1.00;;
553;SDS011;59;48.778;9.156;2023-05-10T09:46:15;2.50;;;0.90;;
553;SDS011;59;48.778;9.156;2023-05-10T09:48:42;1.20;;;0.90;;
553;SDS011;59;48.778;9.156;2023-05-10T09:51:19;1.43;;;1.00;;
553;SDS011;59;48.778;9.156;2023-05-10T09:54:11;4.60;;;1.20;;
553;SDS011;59;48.778;9.156;2023-05-10T09:56:41;1.30;;;1.10;;
553;SDS011;59;48.778;9.156;2023-05-10T09:59:08;1.20;;;0.90;;
553;SDS011;59;48.778;9.156;2023-05-10T10:01:35;1.07;;;0.90;;
553;SDS011;59;48.778;9.156;2023-05-10T10:04:05;1.00;;;0.80;;
553;SDS011;59;48.778;9.156;2023-05-10T10:06:38;1.50;;;0.77;;
553;SDS011;59;48.778;9.156;2023-05-10T10:09:08;0.90;;;0.90;;
553;SDS011;59;48.778;9.156;2023-05-10T10:11:34;1.40;;;1.10;;
553;SDS011;59;48.778;9.156;2023-05-10T10:14:01;1.30;;;1.20;;
553;SDS011;59;48.778;9.156;2023-05-10T10:16:28;1.20;;;0.90;;
553;SDS011;59;48.778;9.156;2023-05-10T10:18:55;1.10;;;0.87;;
553;SDS011;59;48.778;9.156;2023-05-10T10:21:21;1.37;;;1.10;;
553;SDS011;59;48.778;9.156;2023-05-10T10:23:47;1.73;;;0.80;;
553;SDS011;59;48.778;9.156;2023-05-10T10:26:13;1.10;;;0.80;;
553;SDS011;59;48.778;9.156;2023-05-10T10:29:00;1.97;;;0.77;;
553;SDS011;59;48.778;9.156;2023-05-10T10:31:41;0.90;;;0.87;;
553;SDS011;59;48.778;9.156;2023-05-10T10:34:22;1.20;;;1.07;;
553;SDS011;59;48.778;9.156;2023-05-10T10:36:52;0.90;;;0.90;;
553;SDS011;59;48.778;9.156;2023-05-10T10:39:19;2.03;;;1.20;;
553;SDS011;59;48.778;9.156;2023-05-10T10:41:49;1.20;;;1.10;;
553;SDS011;59;48.778;9.156;2023-05-10T10:46:58;4.63;;;1.50;;
553;SDS011;59;48.778;9.156;2023-05-10T10:49:30;3.00;;;1.40;;
553;SDS011;59;48.778;9.156;2023-05-10T10:54:59;1.27;;;1.03;;
553;SDS011;59;48.778;9.156;2023-05-10T11:02:49;1.10;;;1.00;;
553;SDS011;59;48.778;9.156;2023-05-10T11:05:38;1.53;;;0.80;;
553;SDS011;59;48.778;9.156;2023-05-10T11:15:57;1.67;;;1.27;;
553;SDS011;59;48.778;9.156;2023-05-10T11:20:50;2.70;;;1.10;;
553;SDS011;59;48.778;9.156;2023-05-10T11:23:17;1.00;;;0.80;;
553;SDS011;59;48.778;9.156;2023-05-10T11:25:45;1.33;;;1.10;;
553;SDS011;59;48.778;9.156;2023-05-10T11:28:13;1.37;;;1.00;;
553;SDS011;59;48.778;9.156;2023-05-10T11:30:39;1.23;;;0.93;;
553;SDS011;59;48.778;9.156;2023-05-10T11:33:06;1.87;;;0.80;;
553;SDS011;59;48.778;9.156;2023-05-10T11:35:39;1.93;;;0.80;;
553;SDS011;59;48.778;9.156;2023-05-10T11:38:09;1.00;;;1.00;;
553;SDS011;59;48.778;9.156;2023-05-10T11:40:36;3.00;;;1.80;;
553;SDS011;59;48.778;9.156;2023-05-10T11:43:02;1.67;;;1.13;;
553;SDS011;59;48.778;9.156;2023-05-10T11:45:28;1.60;;;1.20;;
553;SDS011;59;48.778;9.156;2023-05-10T11:47:57;1.33;;;1.20;;
553;SDS011;59;48.778;9.156;2023-05-10T11:50:23;2.37;;;0.97;;
553;SDS011;59;48.778;9.156;2023-05-10T11:52:56;2.03;;;0.90;;
553;SDS011;59;48.778;9.156;2023-05-10T11:55:22;54.93;;;35.13;;
553;SDS011;59;48.778;9.156;2023-05-10T11:57:52;92.57;;;61.70;;
553;SDS011;59;48.778;9.156;2023-05-10T12:00:19;28.17;;;20.70;;
553;SDS011;59;48.778;9.156;2023-05-10T12:02:44;21.60;;;15.27;;
553;SDS011;59;48.778;9.156;2023-05-10T12:05:10;6.87;;;4.97;;
553;SDS011;59;48.778;9.156;2023-05-10T12:07:36;3.50;;;2.00;;
553;SDS011;59;48.778;9.156;2023-05-10T12:10:04;2.90;;;2.10;;
553;SDS011;59;48.778;9.156;2023-05-10T12:12:36;2.20;;;1.53;;
553;SDS011;59;48.778;9.156;2023-05-10T12:15:10;2.03;;;1.30;;
553;SDS011;59;48.778;9.156;2023-05-10T12:17:46;2.13;;;1.20;;
553;SDS011;59;48.778;9.156;2023-05-10T12:20:16;1.67;;;1.40;;
553;SDS011;59;48.778;9.156;2023-05-10T12:22:50;3.60;;;2.10;;
553;SDS011;59;48.778;9.156;2023-05-10T12:25:20;3.20;;;1.70;;
553;SDS011;59;48.778;9.156;2023-05-10T12:30:21;2.10;;;1.43;;
553;SDS011;59;48.778;9.156;2023-05-10T12:32:50;2.73;;;1.30;;
553;SDS011;59;48.778;9.156;2023-05-10T12:35:17;2.17;;;1.50;;
553;SDS011;59;48.778;9.156;2023-05-10T12:37:46;2.50;;;1.40;;
553;SDS011;59;48.778;9.156;2023-05-10T12:40:13;1.93;;;1.50;;
553;SDS011;59;48.778;9.156;2023-05-10T12:42:38;1.80;;;1.23;;
553;SDS011;59;48.778;9.156;2023-05-10T12:45:05;4.53;;;1.43;;
553;SDS011;59;48.778;9.156;2023-05-10T12:47:32;1.63;;;1.00;;
553;SDS011;59;48.778;9.156;2023-05-10T12:50:00;2.40;;;1.20;;
553;SDS011;59;48.778;9.156;2023-05-10T12:52:26;2.23;;;1.80;;
553;SDS011;59;48.778;9.156;2023-05-10T12:54:53;3.20;;;1.87;;
553;SDS011;59;48.778;9.156;2023-05-10T12:57:19;2.97;;;1.50;;
553;SDS011;59;48.778;9.156;2023-05-10T12:59:45;2.50;;;1.60;;
553;SDS011;59;48.778;9.156;2023-05-10T13:02:11;1.80;;;1.40;;
553;SDS011;59;48.778;9.156;2023-05-10T13:04:37;1.23;;;1.23;;
553;SDS011;59;48.778;9.156;2023-05-10T13:07:05;1.80;;;1.33;;
553;SDS011;59;48.778;9.156;2023-05-10T13:09:31;1.50;;;1.40;;
553;SDS011;59;48.778;9.156;2023-05-10T13:11:57;2.60;;;1.67;;
553;SDS011;59;48.778;9.156;2023-05-10T13:14:23;3.53;;;1.60;;
553;SDS011;59;48.778;9.156;2023-05-10T13:16:49;3.30;;;1.67;;
553;SDS011;59;48.778;9.156;2023-05-10T13:19:15;2.70;;;1.47;;
553;SDS011;59;48.778;9.156;2023-05-10T13:21:41;2.90;;;1.50;;
553;SDS011;59;48.778;9.156;2023-05-10T13:24:07;1.50;;;1.40;;
553;SDS011;59;48.778;9.156;2023-05-10T13:26:33;3.17;;;1.60;;
553;SDS011;59;48.778;9.156;2023-05-10T13:28:59;2.57;;;1.67;;
553;SDS011;59;48.778;9.156;2023-05-10T13:31:24;2.13;;;1.50;;
553;SDS011;59;48.778;9.156;2023-05-10T13:33:50;3.03;;;1.50;;
553;SDS011;59;48.778;9.156;2023-05-10T13:36:16;2.37;;;1.40;;
553;SDS011;59;48.778;9.156;2023-05-10T13:38:41;2.70;;;2.30;;
553;SDS011;59;48.778;9.156;2023-05-10T13:41:07;2.90;;;1.40;;
553;SDS011;59;48.778;9.156;2023-05-10T13:43:33;4.40;;;1.50;;
553;SDS011;59;48.778;9.156;2023-05-10T13:46:01;1.10;;;1.10;;
553;SDS011;59;48.778;9.156;2023-05-10T13:48:26;2.40;;;1.10;;
553;SDS011;59;48.778;9.156;2023-05-10T13:50:52;3.67;;;1.30;;
553;SDS011;59;48.778;9.156;2023-05-10T13:53:18;1.67;;;1.10;;
553;SDS011;59;48.778;9.156;2023-05-10T13:55:43;1.30;;;1.23;;
553;SDS011;59;48.778;9.156;2023-05-10T13:58:09;1.30;;;1.20;;
553;SDS011;59;48.778;9.156;2023-05-10T14:00:35;1.37;;;1.30;;
553;SDS011;59;48.778;9.156;2023-05-10T14:03:01;2.03;;;1.63;;
553;SDS011;59;48.778;9.156;2023-05-10T14:05:27;1.10;;;1.10;;
553;SDS011;59;48.778;9.156;2023-05-10T14:07:52;1.83;;;1.30;;
553;SDS011;59;48.778;9.156;2023-05-10T14:10:18;1.70;;;1.20;;
553;SDS011;59;48.778;9.156;2023-05-10T14:12:44;2.00;;;1.30;;
553;SDS011;59;48.778;9.156;2023-05-10T14:15:10;3.37;;;1.20;;
553;SDS011;59;48.778;9.156;2023-05-10T14:17:36;12.63;;;9.23;;
553;SDS011;59;48.778;9.156;2023-05-10T14:20:02;8.60;;;6.53;;
553;SDS011;59;48.778;9.156;2023-05-10T14:22:28;5.47;;;4.13;;
553;SDS011;59;48.778;9.156;2023-05-10T14:24:54;2.57;;;1.53;;
553;SDS011;59;48.778;9.156;2023-05-10T14:27:20;2.53;;;1.37;;
553;SDS011;59;48.778;9.156;2023-05-10T14:29:47;1.43;;;1.30;;
553;SDS011;59;48.778;9.156;2023-05-10T14:32:12;1.77;;;1.27;;
553;SDS011;59;48.778;9.156;2023-05-10T14:34:38;1.67;;;1.40;;
553;SDS011;59;48.778;9.156;2023-05-10T14:37:04;1.57;;;1.00;;
553;SDS011;59;48.778;9.156;2023-05-10T14:39:30;1.40;;;1.20;;
553;SDS011;59;48.778;9.156;2023-05-10T14:41:56;2.00;;;1.43;;
553;SDS011;59;48.778;9.156;2023-05-10T14:44:23;2.30;;;1.13;;
553;SDS011;59;48.778;9.156;2023-05-10T14:46:48;1.30;;;1.10;;
553;SDS011;59;48.778;9.156;2023-05-10T14:49:14;1.47;;;1.13;;
553;SDS011;59;48.778;9.156;2023-05-10T14:51:40;2.50;;;1.10;;
553;SDS011;59;48.778;9.156;2023-05-10T14:54:06;1.50;;;1.10;;
553;SDS011;59;48.778;9.156;2023-05-10T14:56:32;1.00;;;0.90;;
553;SDS011;59;48.778;9.156;2023-05-10T14:58:57;1.80;;;1.10;;
553;SDS011;59;48.778;9.156;2023-05-10T15:01:24;1.40;;;1.17;;
553;SDS011;59;48.778;9.156;2023-05-10T15:03:50;1.60;;;0.97;;
553;SDS011;59;48.778;9.156;2023-05-10T15:06:15;1.53;;;1.20;;
553;SDS011;59;48.778;9.156;2023-05-10T15:08:41;1.80;;;1.00;;
553;SDS011;59;48.778;9.156;2023-05-10T15:11:07;1.63;;;0.93;;
553;SDS011;59;48.778;9.156;2023-05-10T15:13:32;2.20;;;1.13;;
553;SDS011;59;48.778;9.156;2023-05-10T15:15:58;1.87;;;1.10;;
553;SDS011;59;48.778;9.156;2023-05-10T15:18:23;1.83;;;1.20;;
553;SDS011;59;48.778;9.156;2023-05-10T15:20:49;1.40;;;1.10;;
553;SDS011;59;48.778;9.156;2023-05-10T15:23:15;1.70;;;1.13;;
553;SDS011;59;48.778;9.156;2023-05-10T15:25:41;2.37;;;1.60;;
553;SDS011;59;48.778;9.156;2023-05-10T15:28:06;5.13;;;3.33;;
553;SDS011;59;48.778;9.156;2023-05-10T15:30:32;4.13;;;2.97;;
553;SDS011;59;48.778;9.156;2023-05-10T15:32:58;3.90;;;2.90;;
553;SDS011;59;48.778;9.156;2023-05-10T15:35:23;2.30;;;2.20;;
553;SDS011;59;48.778;9.156;2023-05-10T15:37:51;3.10;;;1.77;;
553;SDS011;59;48.778;9.156;2023-05-10T15:40:16;3.87;;;1.60;;
553;SDS011;59;48.778;9.156;2023-05-10T15:42:42;2.13;;;1.40;;
553;SDS011;59;48.778;9.156;2023-05-10T15:45:08;2.23;;;1.10;;
553;SDS011;59;48.778;9.156;2023-05-10T15:47:34;2.33;;;1.30;;
553;SDS011;59;48.778;9.156;2023-05-10T15:50:00;3.50;;;1.50;;
553;SDS011;59;48.778;9.156;2023-05-10T15:52:26;1.90;;;1.60;;
553;SDS011;59;48.778;9.156;2023-05-10T15:54:52;1.50;;;1.40;;
553;SDS011;59;48.778;9.156;2023-05-10T15:57:18;1.40;;;1.37;;
553;SDS011;59;48.778;9.156;2023-05-10T15:59:43;1.90;;;1.20;;
553;SDS011;59;48.778;9.156;2023-05-10T16:02:09;3.33;;;1.10;;
553;SDS011;59;48.778;9.156;2023-05-10T16:04:36;1.03;;;1.00;;
553;SDS011;59;48.778;9.156;2023-05-10T16:07:02;1.40;;;1.10;;
553;SDS011;59;48.778;9.156;2023-05-10T16:09:27;1.67;;;1.00;;
553;SDS011;59;48.778;9.156;2023-05-10T16:11:53;1.90;;;1.20;;
553;SDS011;59;48.778;9.156;2023-05-10T16:14:19;1.27;;;0.97;;
553;SDS011;59;48.778;9.156;2023-05-10T16:16:48;2.03;;;1.53;;
553;SDS011;59;48.778;9.156;2023-05-10T16:19:14;1.90;;;1.60;;
553;SDS011;59;48.778;9.156;2023-05-10T16:21:40;2.40;;;1.77;;
553;SDS011;59;48.778;9.156;2023-05-10T16:24:05;2.43;;;1.60;;
553;SDS011;59;48.778;9.156;2023-05-10T16:26:31;1.70;;;1.20;;
553;SDS011;59;48.778;9.156;2023-05-10T16:28:58;1.53;;;1.30;;
553;SDS011;59;48.778;9.156;2023-05-10T16:31:24;1.40;;;1.20;;
553;SDS011;59;48.778;9.156;2023-05-10T16:33:50;2.20;;;1.30;;
553;SDS011;59;48.778;9.156;2023-05-10T16:36:15;2.27;;;1.50;;